Home > Products > Valid Products > TAF

000
FTUS41 KAKQ 301938 AAA
TAFSBY
TAF AMD
KSBY 301938Z 3020/0118 17011G20KT P6SM SCT040 BKN150
     FM302100 19009KT P6SM VCTS BKN040CB
     FM010800 21007KT P6SM BKN120=



000
FTUS41 KAKQ 301938 AAA
TAFSBY
TAF AMD
KSBY 301938Z 3020/0118 17011G20KT P6SM SCT040 BKN150
     FM302100 19009KT P6SM VCTS BKN040CB
     FM010800 21007KT P6SM BKN120=



000
FTUS41 KAKQ 301857 AAA
TAFRIC
TAF AMD
KRIC 301857Z 3019/0118 20009G15KT P6SM VCTS BKN050CB
     FM302300 20009KT P6SM SCT050 BKN100
     FM010300 22005KT P6SM BKN120=



000
FTUS41 KAKQ 301742 RRA
TAFORF
TAF
KORF 301742Z 3018/0118 19011G18KT P6SM BKN250
     FM302300 21012KT P6SM BKN100
     FM010500 24009KT P6SM BKN050 OVC100=



000
FTUS41 KAKQ 301742 RRA
TAFRIC
TAF
KRIC 301742Z 3018/0118 20010G18KT P6SM BKN250
     FM302200 20009KT P6SM SCT050 BKN100
     FM010300 22005KT P6SM BKN120=



000
FTUS41 KAKQ 301742 RRA
TAFECG
TAF
KECG 301742Z 3018/0118 19011KT P6SM SCT250
     FM302300 21010KT P6SM BKN100
     FM010400 20004KT P6SM BKN050=



000
FTUS41 KAKQ 301742 RRA
TAFSBY
TAF
KSBY 301742Z 3018/0118 17010G18KT P6SM BKN250
     FM302300 19009KT P6SM BKN100
     FM010800 21007KT P6SM BKN150=



000
FTUS41 KAKQ 301742 RRA
TAFPHF
TAF
KPHF 301742Z 3018/0118 20011G18KT P6SM BKN250
     FM302300 21010KT P6SM BKN100
     FM010500 24009KT P6SM BKN050 OVC100=



000
FTUS41 KAKQ 301120
TAFECG
TAF
KECG 301120Z 3012/0112 18007KT P6SM SCT250
     FM301600 19011KT P6SM SCT250
     FM302300 21010KT P6SM BKN100=



000
FTUS41 KAKQ 301120
TAFECG
TAF
KECG 301120Z 3012/0112 18007KT P6SM SCT250
     FM301600 19011KT P6SM SCT250
     FM302300 21010KT P6SM BKN100=



000
FTUS41 KAKQ 301120
TAFRIC
TAF
KRIC 301120Z 3012/0112 17007KT P6SM SCT250
     FM301700 20010G18KT P6SM BKN250
     FM302300 20009KT P6SM BKN100=



000
FTUS41 KAKQ 301120
TAFPHF
TAF
KPHF 301120Z 3012/0112 18008KT P6SM SCT250
     FM301600 20011G18KT P6SM BKN250
     FM302300 21010KT P6SM BKN100=



000
FTUS41 KAKQ 301120
TAFRIC
TAF
KRIC 301120Z 3012/0112 17007KT P6SM SCT250
     FM301700 20010G18KT P6SM BKN250
     FM302300 20009KT P6SM BKN100=



000
FTUS41 KAKQ 301120
TAFPHF
TAF
KPHF 301120Z 3012/0112 18008KT P6SM SCT250
     FM301600 20011G18KT P6SM BKN250
     FM302300 21010KT P6SM BKN100=



000
FTUS41 KAKQ 301120
TAFORF
TAF
KORF 301120Z 3012/0112 18008KT P6SM SCT250
     FM301800 19011G18KT P6SM BKN250
     FM302300 21012KT P6SM BKN100=



000
FTUS41 KAKQ 301120
TAFORF
TAF
KORF 301120Z 3012/0112 18008KT P6SM SCT250
     FM301800 19011G18KT P6SM BKN250
     FM302300 21012KT P6SM BKN100=



000
FTUS41 KAKQ 301120
TAFSBY
TAF
KSBY 301120Z 3012/0112 15007KT P6SM SCT250
     FM301600 17010G18KT P6SM BKN250
     FM302300 18009KT P6SM BKN100=



000
FTUS41 KAKQ 301120
TAFSBY
TAF
KSBY 301120Z 3012/0112 15007KT P6SM SCT250
     FM301600 17010G18KT P6SM BKN250
     FM302300 18009KT P6SM BKN100=



000
FTUS41 KAKQ 300520
TAFECG
TAF
KECG 300520Z 3006/0106 16005KT P6SM SCT250
     FM301300 20008KT P6SM SCT250
     FM301800 19011KT P6SM SCT250
     FM302300 20010KT P6SM BKN100=



000
FTUS41 KAKQ 300520
TAFRIC
TAF
KRIC 300520Z 3006/0106 16005KT P6SM SCT250
     FM301300 19008KT P6SM BKN250
     FM301700 20010G18KT P6SM BKN250
     FM302300 20010KT P6SM BKN100=



000
FTUS41 KAKQ 300520
TAFPHF
TAF
KPHF 300520Z 3006/0106 17005KT P6SM SCT250
     FM301200 19009KT P6SM SCT250
     FM301800 20011G18KT P6SM BKN250
     FM302300 20010KT P6SM BKN100=



000
FTUS41 KAKQ 300520
TAFSBY
TAF
KSBY 300520Z 3006/0106 15003KT P6SM SCT250
     FM301300 17008KT P6SM BKN250
     FM301700 17010G18KT P6SM BKN250
     FM302300 16010KT P6SM BKN100=



000
FTUS41 KAKQ 300520
TAFORF
TAF
KORF 300520Z 3006/0106 18006KT P6SM SCT250
     FM301300 19010KT P6SM SCT250
     FM301800 19011G18KT P6SM BKN250
     FM302300 20010KT P6SM BKN100=



000
FTUS41 KAKQ 292335
TAFORF
TAF
KORF 292335Z 3000/3024 16005KT P6SM SCT250
     FM301300 18011KT P6SM SCT250
     FM301800 19012G19KT P6SM BKN250=



000
FTUS41 KAKQ 292335
TAFSBY
TAF
KSBY 292335Z 3000/3024 24003KT P6SM SCT250
     FM300200 VRB03KT P6SM SCT250
     FM301300 17008KT P6SM BKN250
     FM301700 18010G18KT P6SM BKN250=



000
FTUS41 KAKQ 292335
TAFECG
TAF
KECG 292335Z 3000/3024 11006KT P6SM SCT250
     FM300600 16003KT P6SM SCT250
     FM301300 18007KT P6SM SCT250
     FM301800 19011KT P6SM SCT250=



000
FTUS41 KAKQ 292335
TAFPHF
TAF
KPHF 292335Z 3000/3024 12007KT P6SM SCT250
     FM300500 16004KT P6SM SCT250
     FM301300 19011KT P6SM SCT250
     FM301800 19012G19KT P6SM BKN250=



000
FTUS41 KAKQ 292335
TAFRIC
TAF
KRIC 292335Z 3000/3024 16005KT P6SM SCT250
     FM301300 19008KT P6SM BKN250
     FM301700 20010G18KT P6SM BKN250=



000
FTUS41 KAKQ 292335
TAFORF
TAF
KORF 292335Z 3000/3024 16005KT P6SM SCT250
     FM301300 18011KT P6SM SCT250
     FM301800 19012G19KT P6SM BKN250=



000
FTUS41 KAKQ 292335
TAFECG
TAF
KECG 292335Z 3000/3024 11006KT P6SM SCT250
     FM300600 16003KT P6SM SCT250
     FM301300 18007KT P6SM SCT250
     FM301800 19011KT P6SM SCT250=



000
FTUS41 KAKQ 292335
TAFPHF
TAF
KPHF 292335Z 3000/3024 12007KT P6SM SCT250
     FM300500 16004KT P6SM SCT250
     FM301300 19011KT P6SM SCT250
     FM301800 19012G19KT P6SM BKN250=



000
FTUS41 KAKQ 292335
TAFRIC
TAF
KRIC 292335Z 3000/3024 16005KT P6SM SCT250
     FM301300 19008KT P6SM BKN250
     FM301700 20010G18KT P6SM BKN250=



000
FTUS41 KAKQ 292335
TAFSBY
TAF
KSBY 292335Z 3000/3024 24003KT P6SM SCT250
     FM300200 VRB03KT P6SM SCT250
     FM301300 17008KT P6SM BKN250
     FM301700 18010G18KT P6SM BKN250=



000
FTUS41 KAKQ 292106 AAA
TAFORF
TAF AMD
KORF 292106Z 2921/3018 06008KT P6SM SCT050
     FM292300 13005KT P6SM SKC
     FM301400 18011KT P6SM SCT250=



000
FTUS41 KAKQ 291724
TAFECG
TAF
KECG 291724Z 2918/3018 12009KT P6SM SKC
     FM292300 08004KT P6SM SCT250
     FM301200 17007KT P6SM BKN250=



000
FTUS41 KAKQ 291724
TAFRIC
TAF
KRIC 291724Z 2918/3018 13004KT P6SM FEW250
     FM292300 14003KT P6SM SCT250
     FM301200 19008KT P6SM BKN250=



000
FTUS41 KAKQ 291724
TAFORF
TAF
KORF 291724Z 2918/3018 09008KT P6SM SKC
     FM292300 14005KT P6SM SKC
     FM301200 18011KT P6SM SCT250=



000
FTUS41 KAKQ 291724
TAFPHF
TAF
KPHF 291724Z 2918/3018 06005KT P6SM SKC
     FM292300 15003KT P6SM SKC
     FM301200 18010KT P6SM SCT250=



000
FTUS41 KAKQ 291724
TAFSBY
TAF
KSBY 291724Z 2918/3018 27011KT P6SM SKC
     FM292300 14003KT P6SM SCT250
     FM301200 17010KT P6SM BKN250=



000
FTUS41 KAKQ 291120
TAFORF
TAF
KORF 291120Z 2912/3012 05005KT P6SM SKC
     FM291600 11008KT P6SM SCT050
     FM292300 14005KT P6SM SKC=



000
FTUS41 KAKQ 291120
TAFPHF
TAF
KPHF 291120Z 2912/3012 04005KT P6SM SKC
     FM291600 13009KT P6SM SCT050
     FM292300 15003KT P6SM SKC=



000
FTUS41 KAKQ 291120
TAFSBY
TAF
KSBY 291120Z 2912/3012 27005KT P6SM SKC
     FM291600 23009KT P6SM SCT050
     FM292300 14003KT P6SM SCT250=



000
FTUS41 KAKQ 291120
TAFECG
TAF
KECG 291120Z 2912/3012 06004KT P6SM SKC
     FM291600 11009KT P6SM SCT050
     FM292300 08004KT P6SM SCT250=



000
FTUS41 KAKQ 291120
TAFRIC
TAF
KRIC 291120Z 2912/3012 12003KT P6SM SKC
     FM291600 18008KT P6SM SCT050
     FM292300 14003KT P6SM SCT250=



000
FTUS41 KAKQ 290531
TAFPHF
TAF
KPHF 290531Z 2906/3006 34003KT P6SM SKC
     FM291200 04006KT P6SM SKC
     FM291800 13009KT P6SM SCT050=



000
FTUS41 KAKQ 290531
TAFRIC
TAF
KRIC 290531Z 2906/3006 35002KT P6SM SKC
     FM291600 18008KT P6SM SCT050
     FM292300 14003KT P6SM SCT250=



000
FTUS41 KAKQ 290531
TAFSBY
TAF
KSBY 290531Z 2906/3006 27005KT P6SM SKC
     FM291600 23009KT P6SM SCT050
     FM292300 14003KT P6SM SCT250=



000
FTUS41 KAKQ 290531
TAFECG
TAF
KECG 290531Z 2906/3006 24004KT P6SM SKC
     FM291200 04006KT P6SM SKC
     FM291800 12009KT P6SM SCT050=



000
FTUS41 KAKQ 290531
TAFORF
TAF
KORF 290531Z 2906/3006 34004KT P6SM SKC
     FM291200 05008KT P6SM SKC
     FM291800 11008KT P6SM SCT050=



000
FTUS41 KAKQ 282334
TAFPHF
TAF
KPHF 282334Z 2900/2924 30006KT P6SM SKC
     FM291200 04007KT P6SM SKC
     FM291800 13009KT P6SM SCT060=



000
FTUS41 KAKQ 282334
TAFECG
TAF
KECG 282334Z 2900/2924 28007KT P6SM SKC
     FM291200 06007KT P6SM SKC
     FM291800 12009KT P6SM SCT060=



000
FTUS41 KAKQ 282334
TAFORF
TAF
KORF 282334Z 2900/2924 30006KT P6SM SKC
     FM291200 05008KT P6SM SKC
     FM291800 11008KT P6SM SCT060=



000
FTUS41 KAKQ 282334
TAFSBY
TAF
KSBY 282334Z 2900/2924 26009KT P6SM SKC
     FM291200 27004KT P6SM SKC
     FM291800 23009KT P6SM SCT050=



000
FTUS41 KAKQ 282334
TAFRIC
TAF
KRIC 282334Z 2900/2924 30009KT P6SM SKC
     FM291200 03004KT P6SM SKC
     FM291800 18008KT P6SM SCT050=



000
FTUS41 KAKQ 282334
TAFPHF
TAF
KPHF 282334Z 2900/2924 30006KT P6SM SKC
     FM291200 04007KT P6SM SKC
     FM291800 13009KT P6SM SCT060=



000
FTUS41 KAKQ 282334
TAFRIC
TAF
KRIC 282334Z 2900/2924 30009KT P6SM SKC
     FM291200 03004KT P6SM SKC
     FM291800 18008KT P6SM SCT050=



000
FTUS41 KAKQ 282334
TAFSBY
TAF
KSBY 282334Z 2900/2924 26009KT P6SM SKC
     FM291200 27004KT P6SM SKC
     FM291800 23009KT P6SM SCT050=



000
FTUS41 KAKQ 282334
TAFORF
TAF
KORF 282334Z 2900/2924 30006KT P6SM SKC
     FM291200 05008KT P6SM SKC
     FM291800 11008KT P6SM SCT060=



000
FTUS41 KAKQ 282334
TAFECG
TAF
KECG 282334Z 2900/2924 28007KT P6SM SKC
     FM291200 06007KT P6SM SKC
     FM291800 12009KT P6SM SCT060=



000
FTUS41 KAKQ 281738
TAFSBY
TAF
KSBY 281738Z 2818/2918 30010G15KT P6SM SCT040
     FM282300 29006KT P6SM SKC
     FM291200 27004KT P6SM SKC=



000
FTUS41 KAKQ 281738
TAFRIC
TAF
KRIC 281738Z 2818/2918 26010G15KT P6SM SCT045
     FM282300 30006KT P6SM SKC
     FM291200 03004KT P6SM SKC=



000
FTUS41 KAKQ 281738
TAFECG
TAF
KECG 281738Z 2818/2918 24014G20KT P6SM FEW050
     FM282300 28005KT P6SM SKC
     FM291200 06007KT P6SM SKC=



000
FTUS41 KAKQ 281738
TAFORF
TAF
KORF 281738Z 2818/2918 25012G20KT P6SM FEW040
     FM282300 30006KT P6SM SKC
     FM291200 05008KT P6SM SKC=



000
FTUS41 KAKQ 281738
TAFPHF
TAF
KPHF 281738Z 2818/2918 26014G20KT P6SM FEW040
     FM282300 30005KT P6SM SKC
     FM291200 04007KT P6SM SKC=



000
FTUS41 KAKQ 281522 AAA
TAFPHF
TAF AMD
KPHF 281522Z 2815/2912 27010G15KT P6SM SKC
     FM282300 28005KT P6SM SKC=



000
FTUS41 KAKQ 281522 AAA
TAFSBY
TAF AMD
KSBY 281522Z 2815/2912 28010G15KT P6SM SCT050
     FM282300 29005KT P6SM SKC=



000
FTUS41 KAKQ 281521 AAA
TAFRIC
TAF AMD
KRIC 281521Z 2815/2912 29013G19KT P6SM SCT045
     FM282300 30006KT P6SM SKC=



000
FTUS41 KAKQ 281140
TAFPHF
TAF
KPHF 281140Z 2812/2912 25012KT P6SM SCT060
     FM281500 25014G22KT P6SM SCT060
     FM282300 28005KT P6SM SKC=



000
FTUS41 KAKQ 281140
TAFECG
TAF
KECG 281140Z 2812/2912 24012KT P6SM BKN015
     FM281300 24012KT P6SM SCT060
     FM281500 25014G22KT P6SM SCT060
     FM282300 28005KT P6SM SKC=



000
FTUS41 KAKQ 281140
TAFORF
TAF
KORF 281140Z 2812/2912 24008KT P6SM SCT012 BKN050
     FM281300 25010KT P6SM SCT060
     FM281500 25014G22KT P6SM SCT060
     FM282300 28006KT P6SM SKC=



000
FTUS41 KAKQ 281140
TAFSBY
TAF
KSBY 281140Z 2812/2912 32008KT P6SM BKN025 OVC035
     FM281300 28012KT P6SM SCT060
     FM281500 26012G20KT P6SM SCT060
     FM282300 29005KT P6SM SKC=



000
FTUS41 KAKQ 281140
TAFRIC
TAF
KRIC 281140Z 2812/2912 28012KT P6SM SKC
     FM281500 26016G24KT P6SM SCT060
     FM282300 30006KT P6SM SKC=



000
FTUS41 KAKQ 281140
TAFPHF
TAF
KPHF 281140Z 2812/2912 25012KT P6SM SCT060
     FM281500 25014G22KT P6SM SCT060
     FM282300 28005KT P6SM SKC=



000
FTUS41 KAKQ 281140
TAFRIC
TAF
KRIC 281140Z 2812/2912 28012KT P6SM SKC
     FM281500 26016G24KT P6SM SCT060
     FM282300 30006KT P6SM SKC=



000
FTUS41 KAKQ 281140
TAFECG
TAF
KECG 281140Z 2812/2912 24012KT P6SM BKN015
     FM281300 24012KT P6SM SCT060
     FM281500 25014G22KT P6SM SCT060
     FM282300 28005KT P6SM SKC=



000
FTUS41 KAKQ 281140
TAFORF
TAF
KORF 281140Z 2812/2912 24008KT P6SM SCT012 BKN050
     FM281300 25010KT P6SM SCT060
     FM281500 25014G22KT P6SM SCT060
     FM282300 28006KT P6SM SKC=



000
FTUS41 KAKQ 281140
TAFSBY
TAF
KSBY 281140Z 2812/2912 32008KT P6SM BKN025 OVC035
     FM281300 28012KT P6SM SCT060
     FM281500 26012G20KT P6SM SCT060
     FM282300 29005KT P6SM SKC=



000
FTUS41 KAKQ 281006 AAB
TAFRIC
TAF AMD
KRIC 281006Z 2810/2906 28010KT P6SM SCT020 SCT250
     FM281400 26016G24KT P6SM SCT060
     FM282300 29006KT P6SM SKC=



000
FTUS41 KAKQ 281006 AAB
TAFRIC
TAF AMD
KRIC 281006Z 2810/2906 28010KT P6SM SCT020 SCT250
     FM281400 26016G24KT P6SM SCT060
     FM282300 29006KT P6SM SKC=



000
FTUS41 KAKQ 281003 AAB
TAFORF
TAF AMD
KORF 281003Z 2810/2906 22010KT P6SM BKN014 OVC019
     FM281200 25010KT P6SM BKN100
     FM281400 25014G22KT P6SM SCT060
     FM282300 28006KT P6SM SKC=



000
FTUS41 KAKQ 281002 AAA
TAFECG
TAF AMD
KECG 281002Z 2810/2906 22012KT P6SM BKN013 OVC035
     FM281200 24010KT P6SM BKN100
     FM281400 25014G22KT P6SM SCT060
     FM282300 28005KT P6SM SKC=



000
FTUS41 KAKQ 281002 AAA
TAFECG
TAF AMD
KECG 281002Z 2810/2906 22012KT P6SM BKN013 OVC035
     FM281200 24010KT P6SM BKN100
     FM281400 25014G22KT P6SM SCT060
     FM282300 28005KT P6SM SKC=



000
FTUS41 KAKQ 280819 AAA
TAFPHF
TAF AMD
KPHF 280819Z 2808/2906 24010KT P6SM BKN013 OVC019
     FM281000 25008KT P6SM SCT015 SCT250
     FM281100 25010KT P6SM BKN100
     FM281400 25014G22KT P6SM SCT060
     FM282300 28005KT P6SM SKC=



000
FTUS41 KAKQ 280817 AAA
TAFORF
TAF AMD
KORF 280817Z 2808/2906 22010KT P6SM OVC012
     FM281000 22010KT P6SM SCT012 SCT250
     FM281200 25010KT P6SM BKN100
     FM281400 25014G22KT P6SM SCT060
     FM282300 28006KT P6SM SKC=



000
FTUS41 KAKQ 280816 AAA
TAFRIC
TAF AMD
KRIC 280816Z 2808/2906 25005KT P6SM SCT015 SCT250
     FM281000 27014G22KT P6SM SCT035 BKN100
     FM281400 26016G24KT P6SM SCT060
     FM282300 29006KT P6SM SKC=



000
FTUS41 KAKQ 280537
TAFRIC
TAF
KRIC 280537Z 2806/2906 21010KT P6SM SCT009 BKN015 OVC250
      TEMPO 2806/2809 BKN009
     FM281000 27014G22KT P6SM SCT035 BKN100
     FM281400 26016G24KT P6SM SCT060
     FM282300 29006KT P6SM SKC=



000
FTUS41 KAKQ 280537
TAFECG
TAF
KECG 280537Z 2806/2906 22012KT P6SM BKN020
     FM280800 22012KT P6SM SCT020 OVC250
     FM281200 24010KT P6SM BKN100
     FM281400 25014G22KT P6SM SCT060
     FM282300 28005KT P6SM SKC=



000
FTUS41 KAKQ 280537
TAFPHF
TAF
KPHF 280537Z 2806/2906 22012KT P6SM SCT009 BKN015 OVC250
      TEMPO 2806/2808 BKN009
     FM280800 22012KT P6SM SCT015 OVC250
     FM281100 25010KT P6SM BKN100
     FM281400 25014G22KT P6SM SCT060
     FM282300 28005KT P6SM SKC=



000
FTUS41 KAKQ 280537
TAFSBY
TAF
KSBY 280537Z 2806/2906 15006KT P6SM SCT006 BKN015
      TEMPO 2806/2809 BKN006
     FM280900 20008KT P6SM SCT006 BKN015
     FM281200 24012KT P6SM BKN080
     FM281400 26012G20KT P6SM SCT060
     FM282300 29005KT P6SM SKC=



000
FTUS41 KAKQ 280537
TAFORF
TAF
KORF 280537Z 2806/2906 22012KT P6SM SCT012 OVC250
     FM281200 25010KT P6SM BKN100
     FM281400 25014G22KT P6SM SCT060
     FM282300 28006KT P6SM SKC=



000
FTUS41 KAKQ 280409 AAA
TAFSBY
TAF AMD
KSBY 280409Z 2804/2824 15006KT P6SM OVC006
     FM280800 20010KT P6SM SCT006 BKN015
     FM281200 25012G18KT P6SM BKN080
     FM281400 26014G21KT P6SM FEW090=



000
FTUS41 KAKQ 280409 AAA
TAFSBY
TAF AMD
KSBY 280409Z 2804/2824 15006KT P6SM OVC006
     FM280800 20010KT P6SM SCT006 BKN015
     FM281200 25012G18KT P6SM BKN080
     FM281400 26014G21KT P6SM FEW090=



000
FTUS41 KAKQ 280405 AAA
TAFECG
TAF AMD
KECG 280405Z 2804/2824 22015KT P6SM SCT015 BKN030 BKN050
     FM280600 22012KT P6SM SCT100 OVC250
     FM281200 24012G18KT P6SM BKN100
     FM281400 25014G20KT P6SM SKC=



000
FTUS41 KAKQ 280402 AAB
TAFPHF
TAF AMD
KPHF 280402Z 2804/2824 22012KT P6SM SCT100 OVC250
     FM281100 25012G18KT P6SM BKN100
     FM281300 25014G22KT P6SM FEW100=



000
FTUS41 KAKQ 280402 AAB
TAFPHF
TAF AMD
KPHF 280402Z 2804/2824 22012KT P6SM SCT100 OVC250
     FM281100 25012G18KT P6SM BKN100
     FM281300 25014G22KT P6SM FEW100=



000
FTUS41 KAKQ 280401 AAB
TAFORF
TAF AMD
KORF 280401Z 2804/2824 22012KT P6SM SCT100 OVC250
     FM281200 25010G17KT P6SM BKN100
     FM281400 27014G22KT P6SM FEW100=



000
FTUS41 KAKQ 280358 AAA
TAFRIC
TAF AMD
KRIC 280358Z 2804/2824 21010KT P6SM SCT006 BKN015 OVC250
      TEMPO 2804/2807 BKN006
     FM281000 27014G22KT P6SM SCT035 BKN100
     FM281300 26016G24KT P6SM FEW090=



000
FTUS41 KAKQ 280358 AAA
TAFRIC
TAF AMD
KRIC 280358Z 2804/2824 21010KT P6SM SCT006 BKN015 OVC250
      TEMPO 2804/2807 BKN006
     FM281000 27014G22KT P6SM SCT035 BKN100
     FM281300 26016G24KT P6SM FEW090=



000
FTUS41 KAKQ 280155 AAA
TAFPHF
TAF AMD
KPHF 280155Z 2802/2824 20008KT 4SM -RA OVC020
     FM281100 25012G18KT P6SM BKN100
     FM281300 25014G22KT P6SM FEW100=



000
FTUS41 KAKQ 280154 AAA
TAFORF
TAF AMD
KORF 280154Z 2802/2824 20012KT 5SM -RA OVC020
     FM281200 25010G17KT P6SM BKN100
     FM281400 27014G22KT P6SM FEW100=



000
FTUS41 KAKQ 280154 AAA
TAFORF
TAF AMD
KORF 280154Z 2802/2824 20012KT 5SM -RA OVC020
     FM281200 25010G17KT P6SM BKN100
     FM281400 27014G22KT P6SM FEW100=



000
FTUS41 KAKQ 272337
TAFORF
TAF
KORF 272337Z 2800/2824 19011KT 6SM -RA BKN030
     FM280200 20012G20KT 5SM SHRA OVC020
     FM281200 25010G17KT P6SM BKN100
     FM281400 27014G22KT P6SM FEW100=



000
FTUS41 KAKQ 272337
TAFSBY
TAF
KSBY 272337Z 2800/2824 16010KT 3SM RA BKN012 BKN100
      TEMPO 2800/2803 BKN008
     FM280400 17010KT 4SM RA SCT015 OVC030
     FM281200 25012G18KT P6SM BKN080
     FM281400 26014G21KT P6SM FEW090=



000
FTUS41 KAKQ 272337
TAFECG
TAF
KECG 272337Z 2800/2824 19011KT 4SM -SHRA BKN040 BKN100
     FM280200 19010KT 4SM SHRA OVC030
     FM281200 24012G18KT P6SM BKN100
     FM281400 25014G20KT P6SM SKC=



000
FTUS41 KAKQ 272337
TAFRIC
TAF
KRIC 272337Z 2800/2824 17010G15KT 4SM -SHRA VCTS BKN020CB OVC100
      TEMPO 2800/2802 14010KT 2SM -TSRA BKN006CB
     FM280400 23010KT P6SM VCSH SCT010 BKN030 OVC060
     FM281000 27014G22KT P6SM SCT035 BKN100
     FM281300 26016G24KT P6SM FEW090=



000
FTUS41 KAKQ 272337
TAFPHF
TAF
KPHF 272337Z 2800/2824 18008KT 4SM -RA BR BKN035
     FM280200 20012KT 4SM SHRA OVC020
     FM281100 25012G18KT P6SM BKN100
     FM281300 25014G22KT P6SM FEW100=



000
FTUS41 KAKQ 272311 AAB
TAFRIC
TAF AMD
KRIC 272311Z 2723/2818 19010G15KT 5SM -SHRA VCTS BKN040CB OVC100
      TEMPO 2723/2724 1/2SM +RA BKN020
     FM280300 23010KT P6SM VCSH SCT010 BKN030 OVC060
     FM281000 27014KT P6SM SCT035 BKN100=



000
FTUS41 KAKQ 272203 AAB
TAFSBY
TAF AMD
KSBY 272203Z 2722/2818 16010G15KT 3SM RA BKN030 BKN100
      TEMPO 2722/2723 21015G25KT 1SM -TSRA OVC015CB
     FM280400 17010KT 4SM RA SCT015 OVC030
     FM281000 26009KT P6SM BKN100=



000
FTUS41 KAKQ 272157 AAC
TAFPHF
TAF AMD
KPHF 272157Z 2722/2818 18008KT 3SM -RA BR VCTS FEW010CB BKN050
      TEMPO 2722/2723 20015G25KT 1SM RA BR BKN020
     FM280200 20012G20KT 4SM SHRA OVC035
     FM280900 25008KT P6SM BKN100=



    US Dept of Commerce
    National Oceanic and Atmospheric Administration
    National Weather Service
    1325 East West Highway
    Silver Spring, MD 20910
    Page Author: NWS Internet Services Team
Disclaimer
Information Quality
Credits
Glossary
Privacy Policy
Freedom of Information Act (FOIA)
About Us
Career Opportunities